sensor_id;sensor_type;location;lat;lon;timestamp;temperature;humidity
15160;DHT22;7680;48.800;9.680;2023-08-21T00:00:15;21.90;99.90
15160;DHT22;7680;48.800;9.680;2023-08-21T00:05:20;21.90;99.90
15160;DHT22;7680;48.800;9.680;2023-08-21T00:10:23;21.90;99.90
15160;DHT22;7680;48.800;9.680;2023-08-21T00:15:26;21.80;99.90
15160;DHT22;7680;48.800;9.680;2023-08-21T00:20:30;21.70;99.90
15160;DHT22;7680;48.800;9.680;2023-08-21T00:25:34;21.70;99.90
15160;DHT22;7680;48.800;9.680;2023-08-21T00:30:37;21.70;99.90
15160;DHT22;7680;48.800;9.680;2023-08-21T00:35:42;21.70;99.90
15160;DHT22;7680;48.800;9.680;2023-08-21T00:40:45;21.60;99.90
15160;DHT22;7680;48.800;9.680;2023-08-21T00:45:49;21.50;99.90
15160;DHT22;7680;48.800;9.680;2023-08-21T00:50:54;21.50;99.90
15160;DHT22;7680;48.800;9.680;2023-08-21T00:55:57;21.50;99.90
15160;DHT22;7680;48.800;9.680;2023-08-21T01:01:01;21.50;99.90
15160;DHT22;7680;48.800;9.680;2023-08-21T01:06:07;21.40;99.90
15160;DHT22;7680;48.800;9.680;2023-08-21T01:11:16;21.40;99.90
15160;DHT22;7680;48.800;9.680;2023-08-21T01:16:21;21.50;99.90
15160;DHT22;7680;48.800;9.680;2023-08-21T01:21:28;21.40;99.90
15160;DHT22;7680;48.800;9.680;2023-08-21T01:26:34;21.40;99.90
15160;DHT22;7680;48.800;9.680;2023-08-21T01:31:37;21.40;99.90
15160;DHT22;7680;48.800;9.680;2023-08-21T01:36:44;21.30;99.90
15160;DHT22;7680;48.800;9.680;2023-08-21T01:41:50;21.20;99.90
15160;DHT22;7680;48.800;9.680;2023-08-21T01:46:53;21.10;99.90
15160;DHT22;7680;48.800;9.680;2023-08-21T01:51:56;21.00;99.90
15160;DHT22;7680;48.800;9.680;2023-08-21T01:57:00;21.10;99.90
15160;DHT22;7680;48.800;9.680;2023-08-21T02:02:04;21.10;99.90
15160;DHT22;7680;48.800;9.680;2023-08-21T02:07:07;21.00;99.90
15160;DHT22;7680;48.800;9.680;2023-08-21T02:12:12;21.10;99.90
15160;DHT22;7680;48.800;9.680;2023-08-21T02:17:15;21.10;99.90
15160;DHT22;7680;48.800;9.680;2023-08-21T02:22:18;21.00;99.90
15160;DHT22;7680;48.800;9.680;2023-08-21T02:27:22;21.00;99.90
15160;DHT22;7680;48.800;9.680;2023-08-21T02:32:25;21.00;99.90
15160;DHT22;7680;48.800;9.680;2023-08-21T02:37:29;20.90;99.90
15160;DHT22;7680;48.800;9.680;2023-08-21T02:42:33;20.90;99.90
15160;DHT22;7680;48.800;9.680;2023-08-21T02:47:37;20.90;99.90
15160;DHT22;7680;48.800;9.680;2023-08-21T02:52:41;20.90;99.90
15160;DHT22;7680;48.800;9.680;2023-08-21T02:57:46;20.80;99.90
15160;DHT22;7680;48.800;9.680;2023-08-21T03:02:49;20.70;99.90
15160;DHT22;7680;48.800;9.680;2023-08-21T03:07:52;20.70;99.90
15160;DHT22;7680;48.800;9.680;2023-08-21T03:12:57;20.80;99.90
15160;DHT22;7680;48.800;9.680;2023-08-21T03:18:00;20.70;99.90
15160;DHT22;7680;48.800;9.680;2023-08-21T03:23:03;20.60;99.90
15160;DHT22;7680;48.800;9.680;2023-08-21T03:28:08;20.60;99.90
15160;DHT22;7680;48.800;9.680;2023-08-21T03:33:11;20.60;99.90
15160;DHT22;7680;48.800;9.680;2023-08-21T03:38:14;20.60;99.90
15160;DHT22;7680;48.800;9.680;2023-08-21T03:43:19;20.60;99.90
15160;DHT22;7680;48.800;9.680;2023-08-21T03:48:22;20.60;99.90
15160;DHT22;7680;48.800;9.680;2023-08-21T03:53:26;20.60;99.90
15160;DHT22;7680;48.800;9.680;2023-08-21T03:58:32;20.50;99.90
15160;DHT22;7680;48.800;9.680;2023-08-21T04:03:35;20.40;99.90
15160;DHT22;7680;48.800;9.680;2023-08-21T04:08:38;20.40;99.90
15160;DHT22;7680;48.800;9.680;2023-08-21T04:13:43;20.40;99.90
15160;DHT22;7680;48.800;9.680;2023-08-21T04:18:46;20.40;99.90
15160;DHT22;7680;48.800;9.680;2023-08-21T04:23:49;20.40;99.90
15160;DHT22;7680;48.800;9.680;2023-08-21T04:28:53;20.40;99.90
15160;DHT22;7680;48.800;9.680;2023-08-21T04:33:56;20.40;99.90
15160;DHT22;7680;48.800;9.680;2023-08-21T04:38:59;20.40;99.90
15160;DHT22;7680;48.800;9.680;2023-08-21T04:44:04;20.30;99.90
15160;DHT22;7680;48.800;9.680;2023-08-21T04:49:07;20.30;99.90
15160;DHT22;7680;48.800;9.680;2023-08-21T04:54:11;20.30;99.90
15160;DHT22;7680;48.800;9.680;2023-08-21T04:59:15;20.40;99.90
15160;DHT22;7680;48.800;9.680;2023-08-21T05:04:18;20.30;99.90
15160;DHT22;7680;48.800;9.680;2023-08-21T05:09:21;20.40;99.90
15160;DHT22;7680;48.800;9.680;2023-08-21T05:14:26;20.50;99.90
15160;DHT22;7680;48.800;9.680;2023-08-21T05:19:32;20.50;99.90
15160;DHT22;7680;48.800;9.680;2023-08-21T05:24:35;20.60;99.90
15160;DHT22;7680;48.800;9.680;2023-08-21T05:29:40;20.70;99.90
15160;DHT22;7680;48.800;9.680;2023-08-21T05:34:43;20.90;99.90
15160;DHT22;7680;48.800;9.680;2023-08-21T05:39:46;21.30;99.90
15160;DHT22;7680;48.800;9.680;2023-08-21T05:44:51;21.80;99.90
15160;DHT22;7680;48.800;9.680;2023-08-21T05:49:55;22.70;99.90
15160;DHT22;7680;48.800;9.680;2023-08-21T05:54:58;23.50;99.90
15160;DHT22;7680;48.800;9.680;2023-08-21T06:00:03;23.80;99.90
15160;DHT22;7680;48.800;9.680;2023-08-21T06:05:09;24.10;99.90
15160;DHT22;7680;48.800;9.680;2023-08-21T06:10:13;24.50;99.90
15160;DHT22;7680;48.800;9.680;2023-08-21T06:15:18;24.50;99.90
15160;DHT22;7680;48.800;9.680;2023-08-21T06:20:21;24.50;99.90
15160;DHT22;7680;48.800;9.680;2023-08-21T06:25:24;24.70;99.90
15160;DHT22;7680;48.800;9.680;2023-08-21T06:30:29;25.20;99.90
15160;DHT22;7680;48.800;9.680;2023-08-21T06:35:32;25.50;99.90
15160;DHT22;7680;48.800;9.680;2023-08-21T06:40:35;25.90;99.90
15160;DHT22;7680;48.800;9.680;2023-08-21T06:45:40;26.20;99.90
15160;DHT22;7680;48.800;9.680;2023-08-21T06:50:43;26.50;99.90
15160;DHT22;7680;48.800;9.680;2023-08-21T06:55:47;26.70;99.90
15160;DHT22;7680;48.800;9.680;2023-08-21T07:00:53;27.20;99.90
15160;DHT22;7680;48.800;9.680;2023-08-21T07:05:57;27.50;99.90
15160;DHT22;7680;48.800;9.680;2023-08-21T07:11:02;27.60;99.90
15160;DHT22;7680;48.800;9.680;2023-08-21T07:16:07;27.70;99.90
15160;DHT22;7680;48.800;9.680;2023-08-21T07:21:11;27.80;99.90
15160;DHT22;7680;48.800;9.680;2023-08-21T07:26:33;28.10;99.90
15160;DHT22;7680;48.800;9.680;2023-08-21T07:31:37;28.70;99.90
15160;DHT22;7680;48.800;9.680;2023-08-21T07:36:40;28.90;99.90
15160;DHT22;7680;48.800;9.680;2023-08-21T07:41:44;29.20;99.90
15160;DHT22;7680;48.800;9.680;2023-08-21T07:46:48;29.50;99.90
15160;DHT22;7680;48.800;9.680;2023-08-21T07:51:51;29.70;99.90
15160;DHT22;7680;48.800;9.680;2023-08-21T07:56:55;29.70;99.90
15160;DHT22;7680;48.800;9.680;2023-08-21T08:01:59;29.70;99.90
15160;DHT22;7680;48.800;9.680;2023-08-21T08:07:04;30.00;99.90
15160;DHT22;7680;48.800;9.680;2023-08-21T08:12:07;30.20;99.90
15160;DHT22;7680;48.800;9.680;2023-08-21T08:17:12;30.10;99.90
15160;DHT22;7680;48.800;9.680;2023-08-21T08:22:15;30.40;99.90
15160;DHT22;7680;48.800;9.680;2023-08-21T08:27:18;30.50;99.90
15160;DHT22;7680;48.800;9.680;2023-08-21T08:32:23;30.50;99.90
15160;DHT22;7680;48.800;9.680;2023-08-21T08:37:26;30.40;99.90
15160;DHT22;7680;48.800;9.680;2023-08-21T08:42:29;30.10;99.90
15160;DHT22;7680;48.800;9.680;2023-08-21T08:47:35;30.10;99.90
15160;DHT22;7680;48.800;9.680;2023-08-21T08:52:39;30.20;99.90
15160;DHT22;7680;48.800;9.680;2023-08-21T08:57:42;30.20;99.90
15160;DHT22;7680;48.800;9.680;2023-08-21T09:02:47;30.60;99.90
15160;DHT22;7680;48.800;9.680;2023-08-21T09:08:03;30.10;99.90
15160;DHT22;7680;48.800;9.680;2023-08-21T09:13:13;30.00;99.90
15160;DHT22;7680;48.800;9.680;2023-08-21T09:18:19;30.40;99.90
15160;DHT22;7680;48.800;9.680;2023-08-21T09:23:22;30.50;99.90
15160;DHT22;7680;48.800;9.680;2023-08-21T09:28:25;30.60;99.90
15160;DHT22;7680;48.800;9.680;2023-08-21T09:33:29;30.70;99.90
15160;DHT22;7680;48.800;9.680;2023-08-21T09:38:34;31.10;99.90
15160;DHT22;7680;48.800;9.680;2023-08-21T09:43:41;31.50;99.90
15160;DHT22;7680;48.800;9.680;2023-08-21T09:48:47;31.30;99.90
15160;DHT22;7680;48.800;9.680;2023-08-21T09:53:51;31.60;99.90
15160;DHT22;7680;48.800;9.680;2023-08-21T09:58:56;31.80;99.90
15160;DHT22;7680;48.800;9.680;2023-08-21T10:04:02;32.00;99.90
15160;DHT22;7680;48.800;9.680;2023-08-21T10:09:06;31.90;99.90
15160;DHT22;7680;48.800;9.680;2023-08-21T10:14:10;31.80;99.90
15160;DHT22;7680;48.800;9.680;2023-08-21T10:19:17;31.80;99.90
15160;DHT22;7680;48.800;9.680;2023-08-21T10:24:27;32.10;99.90
15160;DHT22;7680;48.800;9.680;2023-08-21T10:29:31;32.30;99.90
15160;DHT22;7680;48.800;9.680;2023-08-21T10:34:37;32.50;99.90
15160;DHT22;7680;48.800;9.680;2023-08-21T10:39:55;32.60;99.90
15160;DHT22;7680;48.800;9.680;2023-08-21T10:45:10;32.70;99.90
15160;DHT22;7680;48.800;9.680;2023-08-21T10:50:14;32.60;99.90
15160;DHT22;7680;48.800;9.680;2023-08-21T10:55:18;32.70;99.90
15160;DHT22;7680;48.800;9.680;2023-08-21T11:00:21;32.00;99.30
15160;DHT22;7680;48.800;9.680;2023-08-21T11:05:26;32.10;98.40
15160;DHT22;7680;48.800;9.680;2023-08-21T11:10:31;32.30;98.40
15160;DHT22;7680;48.800;9.680;2023-08-21T11:15:36;32.60;98.00
15160;DHT22;7680;48.800;9.680;2023-08-21T11:20:41;32.60;99.20
15160;DHT22;7680;48.800;9.680;2023-08-21T11:25:45;32.40;98.60
15160;DHT22;7680;48.800;9.680;2023-08-21T11:30:48;32.50;98.90
15160;DHT22;7680;48.800;9.680;2023-08-21T11:35:52;32.70;99.00
15160;DHT22;7680;48.800;9.680;2023-08-21T11:40:57;32.80;99.30
15160;DHT22;7680;48.800;9.680;2023-08-21T11:46:01;32.70;99.60
15160;DHT22;7680;48.800;9.680;2023-08-21T11:51:06;32.70;98.50
15160;DHT22;7680;48.800;9.680;2023-08-21T11:56:11;32.70;99.10
15160;DHT22;7680;48.800;9.680;2023-08-21T12:01:18;32.60;98.60
15160;DHT22;7680;48.800;9.680;2023-08-21T12:06:24;32.50;99.70
15160;DHT22;7680;48.800;9.680;2023-08-21T12:11:29;32.70;98.90
15160;DHT22;7680;48.800;9.680;2023-08-21T12:16:32;32.60;99.50
15160;DHT22;7680;48.800;9.680;2023-08-21T12:21:37;32.40;99.90
15160;DHT22;7680;48.800;9.680;2023-08-21T12:26:40;32.30;99.30
15160;DHT22;7680;48.800;9.680;2023-08-21T12:31:51;32.30;99.30
15160;DHT22;7680;48.800;9.680;2023-08-21T12:36:55;32.50;97.70
15160;DHT22;7680;48.800;9.680;2023-08-21T12:41:59;32.30;97.90
15160;DHT22;7680;48.800;9.680;2023-08-21T12:47:02;32.30;97.60
15160;DHT22;7680;48.800;9.680;2023-08-21T12:52:07;32.20;98.00
15160;DHT22;7680;48.800;9.680;2023-08-21T12:57:11;32.10;98.50
15160;DHT22;7680;48.800;9.680;2023-08-21T13:02:15;32.00;99.10
15160;DHT22;7680;48.800;9.680;2023-08-21T13:07:20;32.10;99.00
15160;DHT22;7680;48.800;9.680;2023-08-21T13:12:23;32.40;98.10
15160;DHT22;7680;48.800;9.680;2023-08-21T13:17:26;32.00;99.50
15160;DHT22;7680;48.800;9.680;2023-08-21T13:22:44;32.10;98.20
15160;DHT22;7680;48.800;9.680;2023-08-21T13:27:47;32.10;97.60
15160;DHT22;7680;48.800;9.680;2023-08-21T13:32:51;32.10;98.30
15160;DHT22;7680;48.800;9.680;2023-08-21T13:37:55;32.00;97.70
15160;DHT22;7680;48.800;9.680;2023-08-21T13:42:58;31.90;97.60
15160;DHT22;7680;48.800;9.680;2023-08-21T13:48:04;31.90;99.10
15160;DHT22;7680;48.800;9.680;2023-08-21T13:53:09;31.90;97.80
15160;DHT22;7680;48.800;9.680;2023-08-21T13:58:12;31.90;98.20
15160;DHT22;7680;48.800;9.680;2023-08-21T14:03:16;31.80;97.50
15160;DHT22;7680;48.800;9.680;2023-08-21T14:08:20;31.80;96.80
15160;DHT22;7680;48.800;9.680;2023-08-21T14:13:23;31.80;98.00
15160;DHT22;7680;48.800;9.680;2023-08-21T14:18:26;31.80;97.30
15160;DHT22;7680;48.800;9.680;2023-08-21T14:23:31;31.60;95.90
15160;DHT22;7680;48.800;9.680;2023-08-21T14:28:35;31.50;97.10
15160;DHT22;7680;48.800;9.680;2023-08-21T14:33:38;31.40;96.70
15160;DHT22;7680;48.800;9.680;2023-08-21T14:38:42;31.30;97.90
15160;DHT22;7680;48.800;9.680;2023-08-21T14:43:46;31.30;97.60
15160;DHT22;7680;48.800;9.680;2023-08-21T14:48:49;31.30;98.20
15160;DHT22;7680;48.800;9.680;2023-08-21T14:53:53;31.30;98.00
15160;DHT22;7680;48.800;9.680;2023-08-21T14:58:56;31.40;97.30
15160;DHT22;7680;48.800;9.680;2023-08-21T15:03:59;31.30;97.80
15160;DHT22;7680;48.800;9.680;2023-08-21T15:09:05;31.20;97.70
15160;DHT22;7680;48.800;9.680;2023-08-21T15:14:09;31.20;96.10
15160;DHT22;7680;48.800;9.680;2023-08-21T15:19:13;31.20;95.30
15160;DHT22;7680;48.800;9.680;2023-08-21T15:24:18;31.20;95.00
15160;DHT22;7680;48.800;9.680;2023-08-21T15:29:21;31.20;95.50
15160;DHT22;7680;48.800;9.680;2023-08-21T15:34:24;31.20;94.60
15160;DHT22;7680;48.800;9.680;2023-08-21T15:39:29;31.30;95.80
15160;DHT22;7680;48.800;9.680;2023-08-21T15:44:32;31.10;96.50
15160;DHT22;7680;48.800;9.680;2023-08-21T15:49:35;31.20;96.60
15160;DHT22;7680;48.800;9.680;2023-08-21T15:54:40;31.10;96.70
15160;DHT22;7680;48.800;9.680;2023-08-21T15:59:43;31.10;97.10
15160;DHT22;7680;48.800;9.680;2023-08-21T16:04:46;31.10;96.90
15160;DHT22;7680;48.800;9.680;2023-08-21T16:09:51;31.00;97.30
15160;DHT22;7680;48.800;9.680;2023-08-21T16:14:54;30.90;96.70
15160;DHT22;7680;48.800;9.680;2023-08-21T16:19:57;30.80;97.10
15160;DHT22;7680;48.800;9.680;2023-08-21T16:25:06;30.70;97.50
15160;DHT22;7680;48.800;9.680;2023-08-21T16:30:10;30.60;97.30
15160;DHT22;7680;48.800;9.680;2023-08-21T16:35:14;30.60;96.90
15160;DHT22;7680;48.800;9.680;2023-08-21T16:40:18;30.50;97.20
15160;DHT22;7680;48.800;9.680;2023-08-21T16:45:25;30.40;97.50
15160;DHT22;7680;48.800;9.680;2023-08-21T16:50:28;30.30;98.10
15160;DHT22;7680;48.800;9.680;2023-08-21T16:55:32;30.20;98.00
15160;DHT22;7680;48.800;9.680;2023-08-21T17:00:36;30.10;99.50
15160;DHT22;7680;48.800;9.680;2023-08-21T17:05:39;29.90;99.90
15160;DHT22;7680;48.800;9.680;2023-08-21T17:10:43;29.80;99.90
15160;DHT22;7680;48.800;9.680;2023-08-21T17:15:46;29.60;99.90
15160;DHT22;7680;48.800;9.680;2023-08-21T17:20:54;29.50;99.90
15160;DHT22;7680;48.800;9.680;2023-08-21T17:25:58;29.40;99.90
15160;DHT22;7680;48.800;9.680;2023-08-21T17:31:01;29.30;99.90
15160;DHT22;7680;48.800;9.680;2023-08-21T17:36:05;29.20;99.90
15160;DHT22;7680;48.800;9.680;2023-08-21T17:41:09;29.10;99.90
15160;DHT22;7680;48.800;9.680;2023-08-21T17:46:12;28.90;99.90
15160;DHT22;7680;48.800;9.680;2023-08-21T17:51:18;28.80;99.90
15160;DHT22;7680;48.800;9.680;2023-08-21T17:56:23;28.60;99.90
15160;DHT22;7680;48.800;9.680;2023-08-21T18:01:26;28.40;99.90
15160;DHT22;7680;48.800;9.680;2023-08-21T18:06:29;28.10;99.90
15160;DHT22;7680;48.800;9.680;2023-08-21T18:11:34;28.00;99.90
15160;DHT22;7680;48.800;9.680;2023-08-21T18:16:37;27.80;99.90
15160;DHT22;7680;48.800;9.680;2023-08-21T18:21:40;27.60;99.90
15160;DHT22;7680;48.800;9.680;2023-08-21T18:26:46;27.50;99.90
15160;DHT22;7680;48.800;9.680;2023-08-21T18:31:49;27.30;99.90
15160;DHT22;7680;48.800;9.680;2023-08-21T18:36:52;27.20;99.90
15160;DHT22;7680;48.800;9.680;2023-08-21T18:41:57;27.00;99.90
15160;DHT22;7680;48.800;9.680;2023-08-21T18:47:00;26.90;99.90
15160;DHT22;7680;48.800;9.680;2023-08-21T18:52:04;26.80;99.90
15160;DHT22;7680;48.800;9.680;2023-08-21T18:57:08;26.70;99.90
15160;DHT22;7680;48.800;9.680;2023-08-21T19:02:13;26.50;99.90
15160;DHT22;7680;48.800;9.680;2023-08-21T19:07:16;26.40;99.90
15160;DHT22;7680;48.800;9.680;2023-08-21T19:12:21;26.20;99.90
15160;DHT22;7680;48.800;9.680;2023-08-21T19:17:24;26.10;99.90
15160;DHT22;7680;48.800;9.680;2023-08-21T19:22:28;26.00;99.90
15160;DHT22;7680;48.800;9.680;2023-08-21T19:27:32;25.80;99.90
15160;DHT22;7680;48.800;9.680;2023-08-21T19:32:35;25.80;99.90
15160;DHT22;7680;48.800;9.680;2023-08-21T19:37:39;25.60;99.90
15160;DHT22;7680;48.800;9.680;2023-08-21T19:42:44;25.60;99.90
15160;DHT22;7680;48.800;9.680;2023-08-21T19:47:47;25.60;99.90
15160;DHT22;7680;48.800;9.680;2023-08-21T19:52:51;25.40;99.90
15160;DHT22;7680;48.800;9.680;2023-08-21T19:57:55;25.30;99.90
15160;DHT22;7680;48.800;9.680;2023-08-21T20:02:59;25.10;99.90
15160;DHT22;7680;48.800;9.680;2023-08-21T20:08:02;25.10;99.90
15160;DHT22;7680;48.800;9.680;2023-08-21T20:13:07;25.10;99.90
15160;DHT22;7680;48.800;9.680;2023-08-21T20:18:10;24.90;99.90
15160;DHT22;7680;48.800;9.680;2023-08-21T20:23:14;24.80;99.90
15160;DHT22;7680;48.800;9.680;2023-08-21T20:28:18;24.80;99.90
15160;DHT22;7680;48.800;9.680;2023-08-21T20:33:21;24.80;99.90
15160;DHT22;7680;48.800;9.680;2023-08-21T20:38:25;24.70;99.90
15160;DHT22;7680;48.800;9.680;2023-08-21T20:43:31;24.60;99.90
15160;DHT22;7680;48.800;9.680;2023-08-21T20:48:35;24.50;99.90
15160;DHT22;7680;48.800;9.680;2023-08-21T20:53:38;24.50;99.90
15160;DHT22;7680;48.800;9.680;2023-08-21T20:58:42;24.30;99.90
15160;DHT22;7680;48.800;9.680;2023-08-21T21:03:45;24.20;99.90
15160;DHT22;7680;48.800;9.680;2023-08-21T21:08:48;24.10;99.90
15160;DHT22;7680;48.800;9.680;2023-08-21T21:13:53;24.10;99.90
15160;DHT22;7680;48.800;9.680;2023-08-21T21:18:56;24.00;99.90
15160;DHT22;7680;48.800;9.680;2023-08-21T21:23:59;23.90;99.90
15160;DHT22;7680;48.800;9.680;2023-08-21T21:29:03;23.90;99.90
15160;DHT22;7680;48.800;9.680;2023-08-21T21:34:07;23.80;99.90
15160;DHT22;7680;48.800;9.680;2023-08-21T21:39:10;23.80;99.90
15160;DHT22;7680;48.800;9.680;2023-08-21T21:44:16;23.70;99.90
15160;DHT22;7680;48.800;9.680;2023-08-21T21:49:19;23.70;99.90
15160;DHT22;7680;48.800;9.680;2023-08-21T21:54:22;23.60;99.90
15160;DHT22;7680;48.800;9.680;2023-08-21T21:59:26;23.50;99.90
15160;DHT22;7680;48.800;9.680;2023-08-21T22:04:29;23.50;99.90
15160;DHT22;7680;48.800;9.680;2023-08-21T22:09:33;23.50;99.90
15160;DHT22;7680;48.800;9.680;2023-08-21T22:14:37;23.40;99.90
15160;DHT22;7680;48.800;9.680;2023-08-21T22:19:40;23.40;99.90
15160;DHT22;7680;48.800;9.680;2023-08-21T22:24:43;23.40;99.90
15160;DHT22;7680;48.800;9.680;2023-08-21T22:29:48;23.40;99.90
15160;DHT22;7680;48.800;9.680;2023-08-21T22:34:51;23.40;99.90
15160;DHT22;7680;48.800;9.680;2023-08-21T22:39:54;23.30;99.90
15160;DHT22;7680;48.800;9.680;2023-08-21T22:44:59;23.20;99.90
15160;DHT22;7680;48.800;9.680;2023-08-21T22:50:02;23.20;99.90
15160;DHT22;7680;48.800;9.680;2023-08-21T22:55:06;23.20;99.90
15160;DHT22;7680;48.800;9.680;2023-08-21T23:00:13;23.20;99.90
15160;DHT22;7680;48.800;9.680;2023-08-21T23:05:17;23.10;99.90
15160;DHT22;7680;48.800;9.680;2023-08-21T23:10:20;23.10;99.90
15160;DHT22;7680;48.800;9.680;2023-08-21T23:15:24;23.10;99.90
15160;DHT22;7680;48.800;9.680;2023-08-21T23:20:27;23.20;99.90
15160;DHT22;7680;48.800;9.680;2023-08-21T23:25:31;23.10;99.90
15160;DHT22;7680;48.800;9.680;2023-08-21T23:30:37;23.00;99.90
15160;DHT22;7680;48.800;9.680;2023-08-21T23:35:40;23.00;99.90
15160;DHT22;7680;48.800;9.680;2023-08-21T23:40:43;22.90;99.90
15160;DHT22;7680;48.800;9.680;2023-08-21T23:45:48;22.80;99.90
15160;DHT22;7680;48.800;9.680;2023-08-21T23:50:51;22.70;99.90
15160;DHT22;7680;48.800;9.680;2023-08-21T23:55:54;22.60;99.90
